Time;durP1;ratioP1;P1;durP2;ratioP2;P2;SDS_P1;SDS_P2;PMS_P1;PMS_P2;Temp;Humidity;BMP_temperature;BMP_pressure;BME280_temperature;BME280_humidity;BME280_pressure;Samples;Min_cycle;Max_cycle;Signal;HPM_P1;HPM_P2
2021/09/04 00:02:14;;;;;;;33.75;16.70;;;;;;;13.42;93.69;102157.16;6179967;23;20004;-73
2021/09/04 00:04:40;;;;;;;28.42;17.15;;;;;;;13.41;93.71;102161.53;6184042;23;20009;-75
2021/09/04 00:07:06;;;;;;;33.35;16.23;;;;;;;13.40;93.38;102154.47;6186453;23;20008;-75
2021/09/04 00:09:33;;;;;;;33.97;15.48;;;;;;;13.37;93.62;102154.38;6185108;23;20005;-74
2021/09/04 00:11:58;;;;;;;30.73;15.98;;;;;;;13.31;94.14;102149.78;6186456;23;20028;-74
2021/09/04 00:14:23;;;;;;;33.30;15.70;;;;;;;13.32;93.80;102158.59;6159304;23;20005;-74
2021/09/04 00:16:49;;;;;;;32.47;16.27;;;;;;;13.30;93.79;102150.63;6184499;23;20001;-74
2021/09/04 00:19:14;;;;;;;30.60;15.40;;;;;;;13.27;94.00;102152.31;6184803;23;20425;-75
2021/09/04 00:21:39;;;;;;;31.40;15.82;;;;;;;13.25;93.64;102148.72;6186395;23;20039;-75
2021/09/04 00:24:05;;;;;;;36.00;17.05;;;;;;;13.24;93.62;102149.56;6184932;23;20005;-73
2021/09/04 00:26:31;;;;;;;41.67;17.55;;;;;;;13.22;93.84;102146.88;6183553;23;20001;-74
2021/09/04 00:28:56;;;;;;;30.25;14.48;;;;;;;13.19;93.91;102148.59;6185109;23;20004;-75
2021/09/04 00:31:21;;;;;;;33.30;15.35;;;;;;;13.14;93.89;102148.44;6185795;23;20005;-75
2021/09/04 00:33:47;;;;;;;30.98;15.60;;;;;;;13.12;93.86;102143.13;6185373;23;20406;-75
2021/09/04 00:36:12;;;;;;;33.97;15.55;;;;;;;13.10;93.75;102138.63;6185447;23;20012;-76
2021/09/04 00:38:37;;;;;;;33.75;16.85;;;;;;;13.04;94.19;102144.66;6184665;23;20013;-73
2021/09/04 00:41:03;;;;;;;35.13;15.63;;;;;;;13.05;94.14;102151.75;6184850;23;20024;-76
2021/09/04 00:43:28;;;;;;;32.95;16.90;;;;;;;13.03;93.89;102148.16;6184984;23;20012;-74
2021/09/04 00:45:54;;;;;;;30.58;16.58;;;;;;;12.96;94.40;102154.13;6184599;23;20005;-74
2021/09/04 00:48:19;;;;;;;27.50;15.10;;;;;;;12.94;94.37;102150.53;6185340;23;20413;-74
2021/09/04 00:50:45;;;;;;;28.80;15.65;;;;;;;12.90;94.22;102143.38;6186090;23;20005;-76
2021/09/04 00:53:10;;;;;;;29.60;15.93;;;;;;;12.88;94.31;102138.03;6185796;23;20025;-74
2021/09/04 00:55:36;;;;;;;29.30;15.80;;;;;;;12.86;94.54;102138.84;6185150;23;20004;-74
2021/09/04 00:58:01;;;;;;;31.13;15.90;;;;;;;12.85;94.63;102134.44;6185393;23;20005;-72
2021/09/04 01:00:29;;;;;;;29.63;15.60;;;;;;;12.86;94.41;102138.84;6180717;23;20088;-74
2021/09/04 01:02:54;;;;;;;31.70;15.52;;;;;;;12.81;94.74;102141.38;6184764;23;20386;-75
2021/09/04 01:05:20;;;;;;;27.65;15.75;;;;;;;12.80;94.74;102127.28;6184090;23;20037;-75
2021/09/04 01:07:45;;;;;;;34.92;15.63;;;;;;;12.77;94.95;102129.81;6185492;23;20035;-74
2021/09/04 01:10:11;;;;;;;33.10;14.98;;;;;;;12.76;94.70;102128.03;6183993;23;20447;-75
2021/09/04 01:12:38;;;;;;;27.50;14.52;;;;;;;12.75;95.11;102123.63;6184626;23;20001;-74
2021/09/04 01:15:05;;;;;;;37.08;14.43;;;;;;;12.75;94.69;102126.25;6184957;23;20001;-74
2021/09/04 01:17:32;;;;;;;28.38;14.32;;;;;;;12.72;94.64;102120.88;6184774;23;20016;-75
2021/09/04 01:19:57;;;;;;;31.30;15.52;;;;;;;12.66;94.94;102126.00;6185284;23;20044;-75
2021/09/04 01:22:23;;;;;;;28.08;15.63;;;;;;;12.67;94.94;102116.31;6185040;23;20436;-74
2021/09/04 01:24:50;;;;;;;29.95;15.70;;;;;;;12.68;94.82;102126.91;6184310;23;20380;-75
2021/09/04 01:27:16;;;;;;;33.17;15.27;;;;;;;12.65;94.87;102126.84;6185432;23;20005;-74
2021/09/04 01:29:42;;;;;;;31.63;15.45;;;;;;;12.62;95.08;102124.13;6185506;23;20428;-75
2021/09/04 01:32:07;;;;;;;30.52;15.57;;;;;;;12.60;94.93;102120.53;6184388;23;20015;-74
2021/09/04 01:34:33;;;;;;;30.15;14.88;;;;;;;12.58;95.13;102119.59;6185096;23;20004;-74
2021/09/04 01:36:58;;;;;;;35.85;16.13;;;;;;;12.52;95.37;102119.41;6182423;23;20040;-77
2021/09/04 01:39:24;;;;;;;28.98;14.75;;;;;;;12.54;95.17;102125.66;6184369;23;20054;-75
2021/09/04 01:41:50;;;;;;;25.60;15.43;;;;;;;12.52;95.23;102122.03;6184491;23;20008;-75
2021/09/04 01:44:15;;;;;;;31.20;15.27;;;;;;;12.46;95.31;102120.13;6185470;23;20008;-74
2021/09/04 01:46:40;;;;;;;30.98;15.13;;;;;;;12.46;95.00;102118.38;6183739;23;20029;-74
2021/09/04 01:49:06;;;;;;;25.40;14.90;;;;;;;12.45;95.42;102116.59;6185089;23;20297;-74
2021/09/04 01:51:32;;;;;;;32.72;15.30;;;;;;;12.45;95.26;102113.06;6183623;23;20001;-73
2021/09/04 01:53:58;;;;;;;34.55;16.25;;;;;;;12.41;95.11;102112.09;6185026;23;20009;-75
2021/09/04 01:56:23;;;;;;;29.83;15.10;;;;;;;12.40;94.98;102107.66;6184053;23;20005;-76
2021/09/04 01:58:48;;;;;;;29.83;15.85;;;;;;;12.36;95.54;102115.41;6185149;23;20088;-73
2021/09/04 02:01:14;;;;;;;35.40;14.52;;;;;;;12.30;95.98;102114.41;6178719;23;20124;-73
2021/09/04 02:03:39;;;;;;;32.25;15.13;;;;;;;12.31;95.76;102115.28;6184821;23;20001;-73
2021/09/04 02:06:04;;;;;;;34.95;15.07;;;;;;;12.30;96.02;102117.03;6184062;23;20036;-74
2021/09/04 02:08:31;;;;;;;36.30;16.40;;;;;;;12.28;96.07;102112.56;6184362;23;20011;-74
2021/09/04 02:10:57;;;;;;;36.03;15.18;;;;;;;12.25;95.81;102112.47;6184280;23;20001;-74
2021/09/04 02:13:23;;;;;;;33.28;15.40;;;;;;;12.24;95.98;102113.31;6183554;23;20009;-73
2021/09/04 02:15:49;;;;;;;26.48;15.02;;;;;;;12.24;96.08;102110.69;6183027;23;20072;-76
2021/09/04 02:18:15;;;;;;;38.75;15.88;;;;;;;12.22;96.58;102109.72;6183837;23;20381;-73
2021/09/04 02:20:40;;;;;;;34.40;15.18;;;;;;;12.21;96.20;102111.50;6184755;23;20013;-75
2021/09/04 02:23:05;;;;;;;38.15;14.95;;;;;;;12.24;95.96;102105.41;6184017;23;20302;-73
2021/09/04 02:25:31;;;;;;;29.63;16.02;;;;;;;12.22;96.57;102107.09;6184453;23;20005;-74
2021/09/04 02:27:56;;;;;;;37.13;15.88;;;;;;;12.24;96.63;102111.56;6183490;23;20401;-75
2021/09/04 02:30:22;;;;;;;26.83;15.38;;;;;;;12.26;96.22;102098.41;6183047;23;20083;-75
2021/09/04 02:32:47;;;;;;;37.00;14.68;;;;;;;12.25;96.22;102097.53;6184522;23;20105;-73
2021/09/04 02:35:13;;;;;;;36.00;16.30;;;;;;;12.24;96.89;102095.75;6183252;23;20465;-73
2021/09/04 02:37:38;;;;;;;36.97;14.88;;;;;;;12.25;96.86;102094.91;6181900;23;20015;-76
2021/09/04 02:40:05;;;;;;;37.05;17.52;;;;;;;12.26;96.99;102090.50;6183817;23;20005;-75
2021/09/04 02:42:32;;;;;;;33.80;15.70;;;;;;;12.27;96.85;102094.94;6183534;23;20564;-75
2021/09/04 02:44:57;;;;;;;34.13;16.52;;;;;;;12.26;97.14;102096.69;6183220;23;20060;-75
2021/09/04 02:47:23;;;;;;;34.25;15.90;;;;;;;12.27;97.45;102092.28;6182788;23;20403;-73
2021/09/04 02:49:48;;;;;;;41.17;16.65;;;;;;;12.29;97.10;102103.81;6183827;23;20009;-73
2021/09/04 02:52:13;;;;;;;38.90;17.88;;;;;;;12.27;97.09;102094.94;6182257;23;20342;-75
2021/09/04 02:54:39;;;;;;;37.35;17.15;;;;;;;12.25;97.22;102096.63;6182053;23;20008;-74
2021/09/04 02:57:04;;;;;;;32.00;16.08;;;;;;;12.25;97.09;102101.91;6182228;23;20088;-74
2021/09/04 02:59:30;;;;;;;33.70;16.30;;;;;;;12.24;96.98;102089.56;6182836;23;20432;-72
2021/09/04 03:01:55;;;;;;;34.83;17.17;;;;;;;12.21;96.82;102095.66;6177939;23;20080;-73
2021/09/04 03:04:21;;;;;;;33.55;15.50;;;;;;;12.20;96.62;102088.56;6183353;23;20028;-75
2021/09/04 03:06:46;;;;;;;38.65;16.25;;;;;;;12.14;96.68;102099.84;6183339;23;20056;-73
2021/09/04 03:09:11;;;;;;;33.30;16.20;;;;;;;12.16;96.49;102099.00;6183082;23;20024;-74
2021/09/04 03:11:37;;;;;;;33.00;16.02;;;;;;;12.17;96.58;102101.69;6184250;23;20001;-74
2021/09/04 03:14:02;;;;;;;32.38;16.55;;;;;;;12.12;97.17;102100.66;6185576;23;20333;-74
2021/09/04 03:16:28;;;;;;;37.17;17.67;;;;;;;12.09;96.76;102095.28;6184098;23;20063;-76
2021/09/04 03:18:54;;;;;;;30.45;17.58;;;;;;;12.08;96.74;102089.09;6185646;23;20008;-74
2021/09/04 03:21:19;;;;;;;40.83;17.05;;;;;;;12.08;96.76;102088.22;6185959;23;20013;-74
2021/09/04 03:23:45;;;;;;;36.70;18.05;;;;;;;12.07;96.98;102086.41;6184328;23;20547;-77
2021/09/04 03:26:10;;;;;;;44.72;18.48;;;;;;;12.04;96.91;102092.50;6185120;23;20034;-74
2021/09/04 03:28:35;;;;;;;39.28;16.85;;;;;;;12.00;96.97;102090.59;6183470;23;20001;-73
2021/09/04 03:31:01;;;;;;;41.33;18.52;;;;;;;11.95;97.92;102089.56;6184956;23;20413;-75
2021/09/04 03:33:26;;;;;;;52.95;19.52;;;;;;;11.96;97.59;102086.09;6185140;23;20051;-76
2021/09/04 03:35:52;;;;;;;44.42;19.17;;;;;;;11.97;97.96;102087.88;6185612;23;20008;-74
2021/09/04 03:38:17;;;;;;;38.10;18.50;;;;;;;12.01;98.60;102094.16;6183173;23;20063;-74
2021/09/04 03:40:43;;;;;;;44.58;18.27;;;;;;;12.10;98.51;102084.78;6186389;23;20439;-73
2021/09/04 03:43:08;;;;;;;48.20;19.13;;;;;;;12.19;98.63;102089.41;6184355;23;20332;-75
2021/09/04 03:45:35;;;;;;;34.70;18.23;;;;;;;12.30;98.68;102089.75;6185869;23;20005;-75
2021/09/04 03:48:00;;;;;;;43.53;19.55;;;;;;;12.37;98.63;102082.91;6182803;23;20324;-74
2021/09/04 03:50:26;;;;;;;38.72;18.00;;;;;;;12.45;98.37;102084.94;6185463;23;20005;-73
2021/09/04 03:52:51;;;;;;;44.40;18.83;;;;;;;12.54;98.19;102079.00;6185330;23;20005;-75
2021/09/04 03:55:17;;;;;;;35.25;17.55;;;;;;;12.64;98.44;102091.63;6184906;23;20009;-73
2021/09/04 03:57:42;;;;;;;41.03;20.25;;;;;;;12.65;98.11;102087.22;6186031;23;20071;-76
2021/09/04 04:00:08;;;;;;;37.78;18.98;;;;;;;12.72;97.42;102083.88;6179619;23;20093;-76
2021/09/04 04:02:33;;;;;;;35.58;19.77;;;;;;;12.74;97.86;102086.59;6185260;23;20008;-75
2021/09/04 04:04:59;;;;;;;43.33;19.25;;;;;;;12.77;97.81;102091.97;6185370;23;20005;-74
2021/09/04 04:07:24;;;;;;;42.60;19.48;;;;;;;12.87;97.92;102087.81;6185872;23;20384;-76
2021/09/04 04:09:49;;;;;;;40.88;19.15;;;;;;;12.89;97.46;102086.13;6184168;23;20364;-75
2021/09/04 04:12:15;;;;;;;40.30;18.90;;;;;;;12.93;97.67;102093.28;6184980;23;20033;-74
2021/09/04 04:14:40;;;;;;;39.83;19.77;;;;;;;12.93;97.34;102094.16;6183312;23;20076;-75
2021/09/04 04:17:06;;;;;;;41.55;20.85;;;;;;;12.88;97.26;102105.47;6184814;23;20016;-74
2021/09/04 04:19:31;;;;;;;47.30;20.33;;;;;;;12.91;97.49;102105.53;6185208;23;20421;-74
2021/09/04 04:21:56;;;;;;;43.90;20.55;;;;;;;12.94;97.66;102106.53;6185080;23;20005;-75
2021/09/04 04:24:22;;;;;;;43.50;20.67;;;;;;;13.00;97.83;102103.16;6183636;23;20029;-75
2021/09/04 04:26:47;;;;;;;37.13;19.95;;;;;;;13.02;97.60;102098.78;6185874;23;20056;-76
2021/09/04 04:29:13;;;;;;;40.05;20.48;;;;;;;13.00;97.41;102105.78;6182826;23;20675;-74
2021/09/04 04:31:39;;;;;;;41.35;19.63;;;;;;;12.99;97.43;102102.28;6183320;23;20009;-74
2021/09/04 04:34:05;;;;;;;44.90;20.58;;;;;;;12.97;97.36;102098.69;6184219;23;20011;-75
2021/09/04 04:36:31;;;;;;;44.78;21.23;;;;;;;12.96;97.34;102098.63;6185386;23;20001;-74
2021/09/04 04:38:56;;;;;;;40.60;20.70;;;;;;;12.94;97.45;102105.63;6184124;23;20005;-76
2021/09/04 04:41:22;;;;;;;43.08;20.40;;;;;;;12.93;97.37;102098.56;6185078;23;20072;-75
2021/09/04 04:43:48;;;;;;;49.60;21.20;;;;;;;12.98;97.71;102110.13;6184119;23;20005;-75
2021/09/04 04:46:13;;;;;;;46.58;22.60;;;;;;;12.95;97.76;102104.75;6185301;23;20417;-75
2021/09/04 04:48:39;;;;;;;37.25;18.80;;;;;;;12.99;97.64;102104.00;6182869;23;20085;-74
2021/09/04 04:51:04;;;;;;;36.65;20.10;;;;;;;12.97;97.53;102101.31;6184886;23;20008;-74
2021/09/04 04:53:30;;;;;;;36.35;19.05;;;;;;;12.95;97.66;102102.13;6183869;23;20012;-74
2021/09/04 04:55:55;;;;;;;45.95;19.30;;;;;;;12.96;97.36;102104.81;6185339;23;19997;-73
2021/09/04 04:58:22;;;;;;;39.65;20.15;;;;;;;12.97;97.17;102100.44;6184692;23;20001;-75
2021/09/04 05:00:47;;;;;;;34.55;18.35;;;;;;;12.98;97.38;102108.41;6179808;23;20005;-75
2021/09/04 05:03:13;;;;;;;39.78;19.70;;;;;;;13.02;97.11;102106.72;6184072;23;20435;-75
2021/09/04 05:05:38;;;;;;;43.50;20.27;;;;;;;12.96;97.17;102107.44;6183101;23;20009;-75
2021/09/04 05:08:04;;;;;;;47.83;21.40;;;;;;;13.03;97.53;102111.16;6184184;23;20727;-74
2021/09/04 05:10:30;;;;;;;43.13;20.17;;;;;;;13.03;97.32;102108.50;6184608;23;20085;-75
2021/09/04 05:12:55;;;;;;;41.80;20.05;;;;;;;13.08;97.28;102120.09;6183623;23;20001;-74
2021/09/04 05:15:20;;;;;;;40.70;20.17;;;;;;;13.11;96.75;102114.00;6185461;23;20008;-76
2021/09/04 05:17:46;;;;;;;44.88;19.95;;;;;;;13.11;97.15;102117.53;6183471;23;20012;-74
2021/09/04 05:20:12;;;;;;;42.72;20.55;;;;;;;13.16;97.07;102123.84;6183769;23;20151;-75
2021/09/04 05:22:37;;;;;;;43.17;20.45;;;;;;;13.17;96.92;102124.72;6184805;23;20424;-75
2021/09/04 05:25:03;;;;;;;42.30;20.90;;;;;;;13.19;97.02;102123.03;6183127;23;20001;-76
2021/09/04 05:27:29;;;;;;;43.33;20.40;;;;;;;13.22;96.84;102116.94;6183746;23;20091;-76
2021/09/04 05:29:55;;;;;;;52.08;21.70;;;;;;;13.28;96.58;102117.06;6183801;23;20028;-74
2021/09/04 05:32:23;;;;;;;39.47;21.05;;;;;;;13.24;96.55;102117.84;6185353;23;20419;-74
2021/09/04 05:34:50;;;;;;;56.47;22.58;;;;;;;13.27;96.62;102115.31;6182303;23;20083;-76
2021/09/04 05:37:16;;;;;;;48.65;21.02;;;;;;;13.28;96.51;102122.38;6184516;23;20005;-74
2021/09/04 05:39:42;;;;;;;51.38;22.15;;;;;;;13.30;96.61;102112.75;6183693;23;20000;-74
2021/09/04 05:42:07;;;;;;;45.13;21.15;;;;;;;13.32;96.84;102109.28;6183160;23;20055;-74
2021/09/04 05:44:33;;;;;;;44.03;21.23;;;;;;;13.37;96.45;102112.06;6174538;23;20009;-75
2021/09/04 05:46:58;;;;;;;46.38;21.23;;;;;;;13.37;96.20;102111.19;6180037;23;20005;-77
2021/09/04 05:49:23;;;;;;;40.00;21.30;;;;;;;13.43;96.46;102111.31;6180596;23;20001;-74
2021/09/04 05:51:49;;;;;;;37.72;20.65;;;;;;;13.44;96.38;102114.03;6182265;23;20001;-76
2021/09/04 05:54:14;;;;;;;51.70;21.58;;;;;;;13.45;95.67;102110.50;6180575;23;20313;-74
2021/09/04 05:56:39;;;;;;;38.47;19.45;;;;;;;13.49;95.75;102107.09;6183354;23;20004;-74
2021/09/04 05:59:05;;;;;;;39.80;19.27;;;;;;;13.47;95.12;102108.81;6183462;23;20026;-76
2021/09/04 06:01:30;;;;;;;44.90;19.23;;;;;;;13.52;94.56;102110.66;6176828;23;20008;-74
2021/09/04 06:03:56;;;;;;;35.00;19.45;;;;;;;13.55;94.41;102106.38;6182087;23;20011;-74
2021/09/04 06:06:21;;;;;;;42.67;19.70;;;;;;;13.58;94.64;102116.09;6182725;23;20015;-75
2021/09/04 06:08:47;;;;;;;36.05;18.90;;;;;;;13.60;94.21;102109.09;6182440;23;20008;-73
2021/09/04 06:11:12;;;;;;;37.47;19.90;;;;;;;13.61;94.06;102100.31;6183321;23;20005;-74
2021/09/04 06:13:37;;;;;;;36.67;18.42;;;;;;;13.67;94.13;102105.75;6185378;23;20039;-76
2021/09/04 06:16:03;;;;;;;33.05;18.35;;;;;;;13.71;93.60;102104.97;6184122;23;20001;-78
2021/09/04 06:18:28;;;;;;;36.22;18.38;;;;;;;13.69;93.33;102104.03;6182521;23;20428;-73
2021/09/04 06:20:54;;;;;;;31.02;17.13;;;;;;;13.71;92.91;102099.66;6183482;23;20020;-74
2021/09/04 06:23:19;;;;;;;33.28;18.38;;;;;;;13.77;92.52;102102.47;6182253;23;20009;-73
2021/09/04 06:25:44;;;;;;;31.30;17.73;;;;;;;13.79;92.36;102106.03;6176550;23;20124;-73
2021/09/04 06:28:10;;;;;;;37.03;19.45;;;;;;;13.78;92.20;102106.91;6178401;23;20421;-73
2021/09/04 06:30:35;;;;;;;32.45;18.23;;;;;;;13.80;91.96;102110.47;6179530;23;20012;-74
2021/09/04 06:33:01;;;;;;;30.50;17.30;;;;;;;13.80;91.96;102110.47;6178234;23;20324;-75
2021/09/04 06:35:26;;;;;;;30.00;17.73;;;;;;;13.77;91.98;102123.63;6174770;23;20387;-75
2021/09/04 06:37:51;;;;;;;31.70;17.42;;;;;;;13.84;91.78;102124.69;6179907;23;20005;-76
2021/09/04 06:40:17;;;;;;;29.58;17.40;;;;;;;13.83;91.85;102123.75;6176136;23;20040;-73
2021/09/04 06:42:42;;;;;;;27.33;17.23;;;;;;;13.90;91.27;102124.81;6176936;23;20451;-73
2021/09/04 06:45:08;;;;;;;27.15;15.40;;;;;;;13.85;91.20;102114.97;6178874;23;20090;-74
2021/09/04 06:47:33;;;;;;;29.05;15.90;;;;;;;13.87;91.43;102118.56;6177236;23;20005;-73
2021/09/04 06:49:59;;;;;;;30.08;16.77;;;;;;;13.94;90.95;102120.50;6182974;23;20005;-74
2021/09/04 06:52:24;;;;;;;30.20;15.77;;;;;;;13.97;90.94;102116.19;6183290;23;20068;-74
2021/09/04 06:54:50;;;;;;;25.85;15.98;;;;;;;14.00;90.26;102118.00;6180841;23;20305;-75
2021/09/04 06:57:15;;;;;;;26.08;15.35;;;;;;;14.04;90.25;102117.22;6181289;23;20039;-74
2021/09/04 06:59:41;;;;;;;26.90;14.70;;;;;;;14.10;89.28;102122.63;6183676;23;20001;-74
2021/09/04 07:02:06;;;;;;;28.92;15.38;;;;;;;14.14;87.98;102108.59;6177737;23;20014;-73
2021/09/04 07:04:32;;;;;;;31.40;15.10;;;;;;;14.19;88.25;102119.31;6182058;23;20013;-74
2021/09/04 07:07:02;;;;;;;28.88;15.15;;;;;;;14.25;87.82;102116.78;6183299;23;20009;-75
2021/09/04 07:09:28;;;;;;;25.98;14.93;;;;;;;14.33;87.15;102119.59;6182884;23;20005;-76
2021/09/04 07:11:53;;;;;;;25.75;13.90;;;;;;;14.38;87.26;102117.94;6183327;23;20005;-73
2021/09/04 07:14:18;;;;;;;24.00;14.40;;;;;;;14.39;86.67;102117.09;6181349;23;20104;-73
2021/09/04 07:16:44;;;;;;;24.52;14.32;;;;;;;14.43;86.31;102120.69;6181239;23;20001;-75
2021/09/04 07:19:11;;;;;;;29.73;14.80;;;;;;;14.44;86.19;102119.81;6183220;23;20001;-73
2021/09/04 07:21:36;;;;;;;24.08;14.30;;;;;;;14.57;85.79;102123.59;6182732;23;20001;-75
2021/09/04 07:24:01;;;;;;;24.30;14.18;;;;;;;14.43;85.89;102121.59;6179785;23;20336;-74
2021/09/04 07:26:27;;;;;;;28.60;14.98;;;;;;;14.48;85.61;102125.22;6181146;23;20080;-74
2021/09/04 07:28:52;;;;;;;23.30;14.60;;;;;;;14.54;85.71;102135.06;6183043;23;20428;-75
2021/09/04 07:31:18;;;;;;;19.58;13.95;;;;;;;14.62;84.92;102130.81;6180372;23;20009;-74
2021/09/04 07:33:44;;;;;;;26.85;14.85;;;;;;;14.59;85.47;102135.16;6180416;23;20015;-75
2021/09/04 07:36:10;;;;;;;22.55;14.23;;;;;;;14.46;85.71;102131.34;6181115;23;20084;-77
2021/09/04 07:38:36;;;;;;;26.95;14.10;;;;;;;14.48;85.57;102134.91;6181690;23;20005;-75
2021/09/04 07:41:01;;;;;;;27.40;13.85;;;;;;;14.53;85.30;102142.94;6180366;23;20032;-74
2021/09/04 07:43:27;;;;;;;27.23;14.13;;;;;;;14.49;84.89;102140.25;6178927;23;20019;-74
2021/09/04 07:45:52;;;;;;;21.42;13.10;;;;;;;14.55;84.68;102131.53;6181087;23;20005;-75
2021/09/04 07:48:18;;;;;;;20.88;13.38;;;;;;;14.54;84.57;102123.56;6180140;23;20044;-77
2021/09/04 07:50:43;;;;;;;24.23;12.93;;;;;;;14.57;84.44;102129.81;6180957;23;20001;-77
2021/09/04 07:53:09;;;;;;;25.02;14.00;;;;;;;14.62;84.47;102133.47;6179608;23;20008;-73
2021/09/04 07:55:34;;;;;;;21.35;13.00;;;;;;;14.63;83.56;102126.44;6181151;23;20033;-76
2021/09/04 07:58:00;;;;;;;17.23;11.93;;;;;;;14.75;83.04;102124.03;6181232;23;20005;-74
2021/09/04 08:00:26;;;;;;;20.67;12.95;;;;;;;14.82;82.91;102123.28;6174372;23;20024;-76
2021/09/04 08:02:52;;;;;;;18.55;12.32;;;;;;;14.94;82.04;102119.09;6180430;23;20028;-75
2021/09/04 08:05:18;;;;;;;22.90;11.55;;;;;;;15.01;81.97;102121.00;6182238;23;20409;-75
2021/09/04 08:07:43;;;;;;;21.67;12.20;;;;;;;15.12;81.25;102123.84;6180263;23;20088;-74
2021/09/04 08:10:09;;;;;;;21.92;11.35;;;;;;;15.23;80.67;102124.03;6181833;23;20012;-74
2021/09/04 08:12:35;;;;;;;17.10;11.32;;;;;;;15.29;80.25;102121.50;6181999;23;20453;-75
2021/09/04 08:15:00;;;;;;;19.08;11.75;;;;;;;15.29;80.17;102122.38;6182175;23;20028;-73
2021/09/04 08:17:25;;;;;;;19.73;11.27;;;;;;;15.40;79.48;102117.28;6179897;23;20008;-74
2021/09/04 08:19:51;;;;;;;23.23;11.60;;;;;;;15.61;79.25;102110.53;6183255;23;20067;-75
2021/09/04 08:22:16;;;;;;;17.55;11.38;;;;;;;15.85;78.20;102118.03;6181175;23;20005;-76
2021/09/04 08:24:42;;;;;;;16.88;10.80;;;;;;;15.99;78.02;102111.16;6183218;23;20009;-75
2021/09/04 08:27:07;;;;;;;19.23;10.80;;;;;;;15.98;76.92;102113.81;6183342;23;20012;-74
2021/09/04 08:29:33;;;;;;;18.70;10.73;;;;;;;16.22;77.47;102101.72;6182914;23;20028;-74
2021/09/04 08:31:58;;;;;;;24.20;11.40;;;;;;;16.28;76.30;102115.09;6179345;23;20100;-74
2021/09/04 08:34:24;;;;;;;17.52;10.52;;;;;;;16.12;76.27;102122.84;6182168;23;20096;-75
2021/09/04 08:36:51;;;;;;;18.85;9.75;;;;;;;16.33;75.03;102106.31;6184615;23;20004;-76
2021/09/04 08:39:16;;;;;;;16.75;10.20;;;;;;;16.31;74.80;102113.34;6184068;23;20332;-75
2021/09/04 08:41:42;;;;;;;19.77;10.45;;;;;;;16.33;74.71;102113.38;6184696;23;20009;-72
2021/09/04 08:44:07;;;;;;;16.73;11.18;;;;;;;16.33;74.89;102113.38;6185500;23;20009;-73
2021/09/04 08:46:35;;;;;;;16.30;10.43;;;;;;;16.20;74.98;102115.00;6183791;23;20011;-75
2021/09/04 08:49:02;;;;;;;14.90;9.73;;;;;;;16.14;75.24;102114.88;6185159;23;20068;-74
2021/09/04 08:51:28;;;;;;;16.40;10.43;;;;;;;16.21;75.88;102126.50;6185296;23;20009;-75
2021/09/04 08:53:54;;;;;;;22.42;11.00;;;;;;;16.33;75.53;102122.25;6183643;23;20001;-75
2021/09/04 08:56:19;;;;;;;23.10;10.38;;;;;;;16.16;75.35;102116.69;6182495;23;20052;-74
2021/09/04 08:58:45;;;;;;;17.35;9.88;;;;;;;16.45;74.14;102121.50;6182669;23;20001;-74
2021/09/04 09:01:29;;;;;;;17.67;10.10;;;;;;;16.56;73.70;102123.41;6178548;23;20012;-76
2021/09/04 09:04:01;;;;;;;15.45;9.88;;;;;;;16.83;72.89;102120.19;6183208;23;20076;-74
2021/09/04 09:06:28;;;;;;;16.90;9.45;;;;;;;16.95;72.73;102122.13;6182813;23;20012;-74
2021/09/04 09:08:55;;;;;;;15.70;9.60;;;;;;;17.22;70.45;102112.63;6182434;23;20005;-73
2021/09/04 09:11:21;;;;;;;17.20;9.63;;;;;;;17.12;71.06;102120.53;6184086;23;20434;-76
2021/09/04 09:13:54;;;;;;;19.25;9.95;;;;;;;17.34;71.16;102118.94;6181604;23;20004;-76
2021/09/04 09:16:22;;;;;;;15.55;9.15;;;;;;;17.44;69.98;102122.56;6185249;23;20001;-74
2021/09/04 09:19:04;;;;;;;13.52;8.57;;;;;;;17.63;69.00;102112.97;6183753;23;20009;-74
2021/09/04 09:21:37;;;;;;;16.88;8.45;;;;;;;18.02;68.20;102110.63;6183253;23;20021;-74
2021/09/04 09:24:13;;;;;;;13.68;8.23;;;;;;;18.50;67.40;102101.09;6183196;23;20008;-73
2021/09/04 09:26:56;;;;;;;16.60;9.70;;;;;;;18.85;66.62;102100.28;6183295;23;20071;-74
2021/09/04 09:29:32;;;;;;;18.73;8.48;;;;;;;19.12;64.13;102093.25;6170221;23;20455;-76
2021/09/04 09:32:02;;;;;;;11.95;7.57;;;;;;;19.33;63.73;102083.47;6184099;23;20001;-74
2021/09/04 09:34:27;;;;;;;15.98;8.98;;;;;;;19.05;63.54;102096.81;6182059;23;20056;-74
2021/09/04 09:37:01;;;;;;;15.13;8.35;;;;;;;19.00;63.33;102093.25;6184014;23;20009;-73
2021/09/04 09:39:29;;;;;;;14.57;8.80;;;;;;;19.24;62.87;102094.16;6182890;23;20001;-75
2021/09/04 09:41:56;;;;;;;13.02;8.90;;;;;;;19.58;61.56;102080.81;6184907;23;20479;-72
2021/09/04 09:44:25;;;;;;;14.45;8.82;;;;;;;19.73;62.01;102080.78;6183382;23;20051;-72
2021/09/04 09:47:01;;;;;;;15.90;8.10;;;;;;;20.41;59.55;102075.25;6183794;23;20012;-74
2021/09/04 09:49:45;;;;;;;16.25;8.18;;;;;;;20.95;57.86;102072.28;6184406;23;20000;-76
2021/09/04 09:52:19;;;;;;;;;;;;;;;20.87;56.95;102068.78;6184198;23;20009;-74
2021/09/04 09:54:45;;;;;;;12.63;8.32;;;;;;;20.92;59.18;102082.13;6183672;23;19975;-74
2021/09/04 09:57:12;;;;;;;16.13;7.57;;;;;;;21.13;57.74;102079.28;6184669;23;20027;-75
2021/09/04 09:59:39;;;;;;;13.27;8.63;;;;;;;21.35;55.91;102074.66;6184791;23;20058;-74
2021/09/04 10:02:10;;;;;;;15.73;8.65;;;;;;;21.17;56.53;102066.78;6177842;23;20021;-73
2021/09/04 10:04:37;;;;;;;12.25;8.45;;;;;;;20.57;57.37;102061.81;6184231;23;20337;-73
2021/09/04 10:07:04;;;;;;;11.98;8.52;;;;;;;20.72;58.13;102072.44;6184617;23;20012;-76
2021/09/04 10:09:30;;;;;;;16.77;9.35;;;;;;;20.47;58.90;102075.22;6182872;23;20031;-74
2021/09/04 10:11:56;;;;;;;16.52;8.90;;;;;;;20.42;58.88;102071.69;6182980;23;20032;-74
2021/09/04 10:14:22;;;;;;;14.27;8.27;;;;;;;20.36;58.93;102071.69;6182842;23;20001;-75
2021/09/04 10:16:53;;;;;;;14.52;8.63;;;;;;;21.36;55.82;102067.50;6181330;23;20004;-75
2021/09/04 10:19:22;;;;;;;11.98;8.40;;;;;;;21.98;54.24;102061.56;6182520;23;20005;-75
2021/09/04 10:21:52;;;;;;;13.38;8.38;;;;;;;22.69;52.93;102068.72;6179603;23;20001;-75
2021/09/04 10:24:18;;;;;;;11.43;7.78;;;;;;;23.43;49.88;102055.91;6177823;23;20008;-75
2021/09/04 10:26:43;;;;;;;12.25;7.88;;;;;;;23.56;49.09;102055.69;6180241;23;20005;-75
2021/09/04 10:29:12;;;;;;;16.02;8.63;;;;;;;23.71;48.27;102045.53;6179540;23;20063;-75
2021/09/04 10:31:56;;;;;;;12.50;8.85;;;;;;;23.53;49.23;102049.47;6179727;23;20444;-76
2021/09/04 10:34:37;;;;;;;11.13;7.75;;;;;;;23.61;47.92;102035.91;6179294;23;20004;-75
2021/09/04 10:37:14;;;;;;;11.98;7.68;;;;;;;23.64;47.31;102031.34;6184747;23;20332;-75
2021/09/04 10:39:50;;;;;;;14.75;8.63;;;;;;;23.42;49.10;102041.59;6183367;23;20111;-75
2021/09/04 10:42:34;;;;;;;12.30;9.00;;;;;;;23.69;48.22;102042.00;6182658;23;20005;-75
2021/09/04 10:45:07;;;;;;;13.23;8.30;;;;;;;23.82;48.23;102034.59;6182738;23;20092;-75
2021/09/04 10:47:52;;;;;;;;;;;;;;;24.18;48.25;102037.47;6184519;23;20005;-75
2021/09/04 10:50:24;;;;;;;11.45;8.25;;;;;;;24.30;47.80;102033.66;6184004;23;19910;-74
2021/09/04 10:52:49;;;;;;;14.20;8.50;;;;;;;24.80;47.08;102026.22;6181893;23;20005;-75
2021/09/04 10:55:27;;;;;;;14.55;8.43;;;;;;;25.81;44.58;102032.59;6182165;23;20012;-75
2021/09/04 10:58:15;;;;;;;15.20;8.85;;;;;;;25.80;43.46;102020.06;6181987;23;20331;-75
2021/09/04 11:00:43;;;;;;;12.80;8.77;;;;;;;26.16;42.09;102024.44;6177576;23;20009;-76
2021/09/04 11:03:10;;;;;;;12.07;9.63;;;;;;;25.48;43.45;102029.91;6182467;23;20012;-76
2021/09/04 11:05:43;;;;;;;14.80;9.43;;;;;;;24.92;45.08;102016.97;6183677;23;20350;-77
2021/09/04 11:08:19;;;;;;;13.63;9.73;;;;;;;25.15;44.57;102021.78;6183214;23;20083;-79
2021/09/04 11:11:09;;;;;;;16.75;9.25;;;;;;;24.77;46.77;102026.31;6181179;23;20016;-78